Time,TemperatureF,DewpointF,PressureIn,WindDirection,WindDirectionDegrees,WindSpeedMPH,WindSpeedGustMPH,Humidity,HourlyPrecipIn,Conditions,Clouds,dailyrainin,SoftwareType,DateUTC
2013-01-31 00:30:00,49.9,49.4,29.03,SW,220,1.0,1.0,98,0.00,,,0.04,Wunderground v.1.13,2013-01-31 05:30:00,
2013-01-31 01:00:00,51.6,50.5,28.99,SW,220,2.0,6.0,96,0.07,,,0.02,Wunderground v.1.13,2013-01-31 06:00:00,
2013-01-31 01:30:00,52.2,51.1,28.97,SW,218,2.0,2.0,96,0.08,,,0.06,Wunderground v.1.13,2013-01-31 06:30:00,
2013-01-31 02:00:00,52.3,51.2,28.94,SSW,205,2.0,2.0,96,0.08,,,0.10,Wunderground v.1.13,2013-01-31 07:00:00,
2013-01-31 02:30:00,52.0,50.9,28.89,South,176,3.0,3.0,96,0.10,,,0.15,Wunderground v.1.13,2013-01-31 07:30:00,
2013-01-31 03:00:00,52.6,51.2,28.85,SSW,199,4.0,6.0,95,0.10,,,0.19,Wunderground v.1.13,2013-01-31 08:00:00,
2013-01-31 03:30:00,52.5,50.8,28.82,SSW,200,3.0,6.0,94,0.13,,,0.23,Wunderground v.1.13,2013-01-31 08:30:00,
2013-01-31 04:00:00,52.3,50.9,28.76,South,172,2.0,2.0,95,0.07,,,0.26,Wunderground v.1.13,2013-01-31 09:00:00,
2013-01-31 04:30:00,52.2,51.1,28.76,South,186,3.0,3.0,96,0.11,,,0.34,Wunderground v.1.13,2013-01-31 09:30:00,
2013-01-31 05:00:00,50.2,48.3,28.78,SW,234,10.0,10.0,93,0.09,,,0.45,Wunderground v.1.13,2013-01-31 10:00:00,
2013-01-31 05:30:00,47.3,44.8,28.80,SW,228,9.0,15.0,91,0.00,,,0.47,Wunderground v.1.13,2013-01-31 10:30:00,
2013-01-31 06:00:00,44.5,41.5,28.82,SSW,202,10.0,21.0,89,0.14,,,0.51,Wunderground v.1.13,2013-01-31 11:00:00,
2013-01-31 06:30:00,41.6,38.0,28.83,SW,214,11.0,13.0,87,0.06,,,0.55,Wunderground v.1.13,2013-01-31 11:30:00,
2013-01-31 07:00:00,39.6,35.8,28.85,WSW,238,14.0,14.0,86,0.00,,,0.55,Wunderground v.1.13,2013-01-31 12:00:00,
2013-01-31 07:30:00,38.6,35.1,28.87,SW,214,13.0,13.0,87,0.00,,,0.55,Wunderground v.1.13,2013-01-31 12:30:00,
2013-01-31 08:00:00,38.3,35.1,28.90,SSW,206,10.0,12.0,88,0.00,,,0.56,Wunderground v.1.13,2013-01-31 13:00:00,
2013-01-31 08:30:00,38.6,32.3,28.92,SW,224,14.0,14.0,78,0.00,,,0.56,Wunderground v.1.13,2013-01-31 13:30:00,
2013-01-31 09:00:00,37.5,31.6,28.95,SSW,211,10.0,10.0,79,0.00,,,0.56,Wunderground v.1.13,2013-01-31 14:00:00,
2013-01-31 09:30:00,36.6,28.8,28.97,West,271,9.0,9.0,73,0.00,,,0.56,Wunderground v.1.13,2013-01-31 14:30:00,
2013-01-31 10:00:00,35.6,27.1,29.00,WSW,240,8.0,10.0,71,0.00,,,0.56,Wunderground v.1.13,2013-01-31 15:00:00,
2013-01-31 10:30:00,33.5,26.1,29.01,SSW,213,13.0,22.0,74,0.00,,,0.57,Wunderground v.1.13,2013-01-31 15:30:00,
2013-01-31 11:00:00,33.8,22.5,29.04,WSW,249,12.0,12.0,63,0.00,,,0.57,Wunderground v.1.13,2013-01-31 16:00:00,
2013-01-31 11:30:00,33.8,20.2,29.05,SW,235,14.0,16.0,57,0.00,,,0.57,Wunderground v.1.13,2013-01-31 16:30:00,
2013-01-31 12:00:00,31.0,22.7,29.07,WSW,246,14.0,14.0,71,0.00,,,0.57,Wunderground v.1.13,2013-01-31 17:00:00,
2013-01-31 12:30:00,31.9,18.8,29.07,WSW,251,11.0,18.0,58,0.00,,,0.57,Wunderground v.1.13,2013-01-31 17:30:00,
2013-01-31 13:00:00,31.6,15.5,29.10,WSW,246,15.0,15.0,51,0.00,,,0.57,Wunderground v.1.13,2013-01-31 18:00:00,
2013-01-31 13:30:00,31.2,13.8,29.12,WSW,253,13.0,15.0,48,0.00,,,0.57,Wunderground v.1.13,2013-01-31 18:30:00,
2013-01-31 14:00:00,30.6,12.2,29.13,West,271,12.0,17.0,46,0.00,,,0.57,Wunderground v.1.13,2013-01-31 19:00:00,
2013-01-31 14:30:00,30.3,12.9,29.15,SW,219,13.0,13.0,48,0.00,,,0.57,Wunderground v.1.13,2013-01-31 19:30:00,
2013-01-31 15:00:00,29.5,11.2,29.17,WSW,258,13.0,15.0,46,0.00,,,0.57,Wunderground v.1.13,2013-01-31 20:00:00,
2013-01-31 15:30:00,29.3,12.0,29.19,WSW,249,9.0,10.0,48,0.00,,,0.57,Wunderground v.1.13,2013-01-31 20:30:00,
2013-01-31 16:00:00,28.4,11.6,29.22,NW,326,9.0,10.0,49,0.00,,,0.57,Wunderground v.1.13,2013-01-31 21:00:00,
2013-01-31 16:30:00,27.5,11.3,29.25,WSW,249,12.0,13.0,50,0.00,,,0.57,Wunderground v.1.13,2013-01-31 21:30:00,
2013-01-31 17:00:00,26.3,8.8,29.28,SW,225,12.0,12.0,47,0.00,,,0.57,Wunderground v.1.13,2013-01-31 22:00:00,
2013-01-31 17:30:00,25.6,8.6,29.31,West,267,11.0,11.0,48,0.00,,,0.57,Wunderground v.1.13,2013-01-31 22:30:00,
2013-01-31 18:00:00,22.7,9.7,29.35,NW,321,7.0,7.0,57,0.00,,,0.57,Wunderground v.1.13,2013-01-31 23:00:00,
2013-01-31 18:30:00,19.5,8.2,29.39,NW,319,4.0,11.0,61,0.00,,,0.57,Wunderground v.1.13,2013-01-31 23:30:00,
2013-01-31 19:00:00,18.9,7.3,29.40,NW,317,4.0,9.0,60,0.00,,,0.57,Wunderground v.1.13,2013-02-01 00:00:00,
2013-01-31 19:30:00,18.3,6.4,29.42,NW,311,6.0,9.0,59,0.00,,,0.57,Wunderground v.1.13,2013-02-01 00:30:00,
2013-01-31 20:00:00,18.1,5.8,29.44,WNW,292,4.0,4.0,58,0.00,,,0.57,Wunderground v.1.13,2013-02-01 01:00:00,
2013-01-31 20:30:00,18.0,6.4,29.45,NW,306,3.0,6.0,60,0.00,,,0.57,Wunderground v.1.13,2013-02-01 01:30:00,
2013-01-31 21:00:00,18.0,6.4,29.46,WNW,282,2.0,6.0,60,0.00,,,0.57,Wunderground v.1.13,2013-02-01 02:00:00,
2013-01-31 21:30:00,18.8,6.8,29.46,NW,304,4.0,4.0,59,0.00,,,0.57,Wunderground v.1.13,2013-02-01 02:30:00,
2013-01-31 22:00:00,17.5,6.3,29.48,WNW,300,3.0,6.0,61,0.00,,,0.57,Wunderground v.1.13,2013-02-01 03:00:00,
2013-01-31 22:30:00,16.4,6.0,29.49,West,278,6.0,6.0,63,0.00,,,0.57,Wunderground v.1.13,2013-02-01 03:30:00,
2013-01-31 23:00:00,15.2,5.9,29.51,NW,304,4.0,6.0,66,0.00,,,0.57,Wunderground v.1.13,2013-02-01 04:00:00,
2013-01-31 23:30:00,13.8,5.2,29.53,NW,317,6.0,6.0,68,0.00,,,0.57,Wunderground v.1.13,2013-02-01 04:30:00,